createdAt,value
2018-12-26T00:07:53.774Z,9
2018-12-26T00:18:02.317Z,6
2018-12-26T00:28:09.515Z,5
2018-12-26T00:38:16.939Z,5
2018-12-26T00:48:24.594Z,4
2018-12-26T00:58:33.460Z,3
2018-12-26T01:08:38.964Z,5
2018-12-26T01:18:45.575Z,5
2018-12-26T01:28:55.090Z,4
2018-12-26T01:39:03.541Z,4
2018-12-26T01:49:10.377Z,5
2018-12-26T01:59:18.904Z,6
2018-12-26T02:09:26.988Z,5
2018-12-26T02:19:33.781Z,3
2018-12-26T02:29:40.953Z,3
2018-12-26T02:39:48.709Z,3
2018-12-26T02:49:53.562Z,3
2018-12-26T03:00:00.824Z,3
2018-12-26T03:10:07.353Z,3
2018-12-26T03:20:14.478Z,3
2018-12-26T03:27:32.314Z,3
2018-12-26T03:37:40.093Z,3
2018-12-26T03:47:46.796Z,3
2018-12-26T03:57:54.148Z,3
2018-12-26T04:08:01.231Z,3
2018-12-26T04:18:07.322Z,3
2018-12-26T04:28:15.999Z,2
2018-12-26T04:38:22.641Z,4
2018-12-26T04:48:32.842Z,3
2018-12-26T04:58:40.851Z,4
2018-12-26T05:08:47.567Z,5
2018-12-26T05:18:54.339Z,2
2018-12-26T05:29:08.757Z,3
2018-12-26T05:39:17.672Z,4
2018-12-26T05:49:24.601Z,2
2018-12-26T05:59:32.943Z,2
2018-12-26T06:09:39.331Z,2
2018-12-26T06:19:48.032Z,2
2018-12-26T06:29:54.945Z,3
2018-12-26T06:40:01.751Z,3
2018-12-26T06:50:09.854Z,2
2018-12-26T07:00:17.807Z,3
2018-12-26T07:10:24.591Z,3
2018-12-26T07:20:33.264Z,4
2018-12-26T07:30:43.823Z,2
2018-12-26T07:40:52.401Z,4
2018-12-26T07:51:00.112Z,2
2018-12-26T08:01:11.806Z,3
2018-12-26T08:11:19.937Z,2
2018-12-26T08:21:28.989Z,3
2018-12-26T08:31:36.444Z,3
2018-12-26T08:41:43.684Z,2
2018-12-26T08:51:51.422Z,3
2018-12-26T08:59:08.447Z,3
2018-12-26T09:09:17.538Z,6
2018-12-26T09:19:26.509Z,3
2018-12-26T09:29:53.496Z,3
2018-12-26T09:39:53.947Z,2
2018-12-26T09:44:28.107Z,4
2018-12-26T09:54:34.618Z,8
2018-12-26T10:04:43.816Z,5
2018-12-26T10:10:02.627Z,3
2018-12-26T10:20:09.137Z,6
2018-12-26T10:31:23.657Z,5
2018-12-26T10:41:26.946Z,6
2018-12-26T10:51:33.775Z,4
2018-12-26T11:01:44.509Z,3
2018-12-26T11:11:51.833Z,3
2018-12-26T11:22:00.693Z,3
2018-12-26T11:23:51.005Z,2
2018-12-26T11:31:23.469Z,3
2018-12-26T11:41:25.665Z,2
2018-12-26T11:51:34.917Z,4
2018-12-26T12:01:47.694Z,5
2018-12-26T12:02:58.180Z,2
2018-12-26T12:13:07.372Z,3
2018-12-26T12:23:14.668Z,3
2018-12-26T12:30:37.937Z,2
2018-12-26T12:31:49.000Z,3
2018-12-26T12:41:57.104Z,5
2018-12-26T12:52:05.513Z,4
2018-12-26T13:00:23.401Z,3
2018-12-26T13:03:34.163Z,4
2018-12-26T13:13:43.140Z,3
2018-12-26T13:23:50.370Z,5
2018-12-26T13:27:05.479Z,5
2018-12-26T13:33:49.155Z,3
2018-12-26T13:37:28.005Z,4
2018-12-26T13:47:31.073Z,5
2018-12-26T13:53:50.235Z,4
2018-12-26T14:03:09.290Z,5
2018-12-26T14:07:40.556Z,3
2018-12-26T14:16:57.405Z,4
2018-12-26T14:27:04.495Z,3
2018-12-26T14:37:14.721Z,5
2018-12-26T14:47:22.872Z,4
2018-12-26T14:57:31.831Z,4
2018-12-26T15:01:51.148Z,6
2018-12-26T15:06:27.106Z,4
2018-12-26T15:11:41.769Z,5
2018-12-26T15:21:49.680Z,10
2018-12-26T15:31:07.427Z,9
2018-12-26T15:32:26.005Z,23
2018-12-26T15:42:31.062Z,11
2018-12-26T15:52:42.328Z,6
2018-12-26T16:05:53.784Z,5
2018-12-26T16:12:15.304Z,6
2018-12-26T16:22:16.688Z,9
2018-12-26T16:26:49.847Z,9
2018-12-26T16:36:53.266Z,10
2018-12-26T16:47:42.541Z,9
2018-12-26T16:48:52.922Z,8
2018-12-26T16:51:02.151Z,8
2018-12-26T17:01:09.764Z,9
2018-12-26T17:11:15.689Z,6
2018-12-26T17:21:20.972Z,6
2018-12-26T17:31:40.289Z,7
2018-12-26T17:41:50.842Z,7
2018-12-26T17:51:57.295Z,7
2018-12-26T18:02:04.768Z,7
2018-12-26T18:12:12.852Z,7
2018-12-26T18:22:17.491Z,9
2018-12-26T18:32:24.262Z,8
2018-12-26T18:42:30.979Z,8
2018-12-26T18:52:37.180Z,7
2018-12-26T19:02:45.358Z,10
2018-12-26T19:12:53.354Z,10
2018-12-26T19:23:00.003Z,11
2018-12-26T19:32:18.765Z,13
2018-12-26T19:42:27.440Z,14
2018-12-26T19:52:39.604Z,17
2018-12-26T20:02:47.143Z,35
2018-12-26T20:12:55.509Z,12
2018-12-26T20:23:02.969Z,16
2018-12-26T20:33:11.967Z,12
2018-12-26T20:43:18.889Z,8
2018-12-26T20:53:24.695Z,10
2018-12-26T21:02:43.163Z,10
2018-12-26T21:12:50.842Z,10
2018-12-26T21:22:58.397Z,9
2018-12-26T21:33:07.343Z,7
2018-12-26T21:43:13.704Z,8
2018-12-26T21:53:22.438Z,12
2018-12-26T22:03:31.833Z,9
2018-12-26T22:13:38.804Z,8
2018-12-26T22:23:45.339Z,8
2018-12-26T22:33:53.104Z,7
2018-12-26T22:43:59.836Z,7
2018-12-26T22:52:18.148Z,5
2018-12-26T23:02:25.096Z,5
2018-12-26T23:12:33.010Z,5
2018-12-26T23:22:40.780Z,4
2018-12-26T23:32:50.333Z,5
2018-12-26T23:42:56.712Z,5
2018-12-26T23:53:05.028Z,9
